Time,TemperatureF,DewpointF,PressureIn,WindDirection,WindDirectionDegrees,WindSpeedMPH,WindSpeedGustMPH,Humidity,HourlyPrecipIn,Conditions,Clouds,dailyrainin,SoftwareType,DateUTC
2013-03-11 00:00:00,21.7,17.3,29.96,NNE,23,2.6,4.4,83,0.00,,,0.00,WUHU216HW,2013-03-11 05:00:00,
2013-03-11 00:05:00,21.7,17.3,29.96,NNE,23,2.6,4.4,83,0.00,,,0.00,WUHU216HW,2013-03-11 05:05:00,
2013-03-11 00:10:00,21.5,17.1,29.96,NNE,23,2.9,4.4,83,0.00,,,0.00,WUHU216HW,2013-03-11 05:10:00,
2013-03-11 00:15:00,21.5,17.1,29.95,NNE,23,4.6,6.4,83,0.00,,,0.00,WUHU216HW,2013-03-11 05:15:00,
2013-03-11 00:20:00,21.5,16.8,29.95,NNE,23,5.3,6.4,82,0.00,,,0.00,WUHU216HW,2013-03-11 05:20:00,
2013-03-11 00:25:00,21.5,16.8,29.95,NNE,23,3.8,6.7,82,0.00,,,0.00,WUHU216HW,2013-03-11 05:25:00,
2013-03-11 00:30:00,21.5,16.8,29.95,NNE,23,5.5,6.7,82,0.00,,,0.00,WUHU216HW,2013-03-11 05:30:00,
2013-03-11 00:35:00,21.3,16.7,29.95,NNE,23,3.8,6.2,82,0.00,,,0.00,WUHU216HW,2013-03-11 05:35:00,
2013-03-11 00:40:00,21.3,16.7,29.95,NNE,23,3.5,6.2,83,0.00,,,0.00,WUHU216HW,2013-03-11 05:40:00,
2013-03-11 00:45:00,21.3,16.7,29.95,NNE,23,4.0,5.1,82,0.00,,,0.00,WUHU216HW,2013-03-11 05:45:00,
2013-03-11 00:50:00,21.3,16.7,29.95,NNE,23,0.0,5.1,83,0.00,,,0.00,WUHU216HW,2013-03-11 05:50:00,
2013-03-11 00:55:00,21.3,16.9,29.94,NNE,23,5.3,7.1,83,0.00,,,0.00,WUHU216HW,2013-03-11 05:55:00,
2013-03-11 01:00:00,21.2,16.7,29.94,NNE,23,4.4,7.1,82,0.00,,,0.00,WUHU216HW,2013-03-11 06:00:00,
2013-03-11 01:05:00,21.2,16.7,29.94,NNE,23,6.7,6.7,83,0.00,,,0.00,WUHU216HW,2013-03-11 06:05:00,
2013-03-11 01:10:00,21.2,16.7,29.93,NNE,23,5.1,6.7,83,0.00,,,0.00,WUHU216HW,2013-03-11 06:10:00,
2013-03-11 01:15:00,21.2,16.7,29.93,NNE,23,3.3,5.1,83,0.00,,,0.00,WUHU216HW,2013-03-11 06:15:00,
2013-03-11 01:20:00,21.0,16.6,29.94,NNE,23,3.8,5.1,83,0.00,,,0.00,WUHU216HW,2013-03-11 06:20:00,
2013-03-11 01:25:00,21.0,16.6,29.94,NNE,23,3.1,7.1,83,0.00,,,0.00,WUHU216HW,2013-03-11 06:25:00,
2013-03-11 01:30:00,20.8,16.4,29.94,NNE,23,0.0,7.1,83,0.00,,,0.00,WUHU216HW,2013-03-11 06:30:00,
2013-03-11 01:35:00,20.8,16.1,29.94,NNE,23,9.3,9.3,82,0.00,,,0.00,WUHU216HW,2013-03-11 06:35:00,
2013-03-11 01:40:00,20.6,15.9,29.94,NNE,23,1.5,9.3,82,0.00,,,0.00,WUHU216HW,2013-03-11 06:40:00,
2013-03-11 01:45:00,20.6,15.9,29.94,NNE,23,0.0,5.3,82,0.00,,,0.00,WUHU216HW,2013-03-11 06:45:00,
2013-03-11 01:50:00,20.4,15.5,29.94,NNE,23,4.9,4.9,81,0.00,,,0.00,WUHU216HW,2013-03-11 06:50:00,
2013-03-11 01:55:00,20.4,15.5,29.94,NNE,23,5.1,5.1,81,0.00,,,0.00,WUHU216HW,2013-03-11 06:55:00,
2013-03-11 02:00:00,20.4,15.8,29.95,NNE,23,4.4,5.1,82,0.00,,,0.00,WUHU216HW,2013-03-11 07:00:00,
2013-03-11 02:05:00,20.3,15.3,29.94,NNE,23,1.7,5.1,81,0.00,,,0.00,WUHU216HW,2013-03-11 07:05:00,
2013-03-11 02:10:00,20.1,15.1,29.94,NNE,23,0.0,4.4,81,0.00,,,0.00,WUHU216HW,2013-03-11 07:10:00,
2013-03-11 02:15:00,20.1,14.9,29.94,NNE,23,1.7,6.2,80,0.00,,,0.00,WUHU216HW,2013-03-11 07:15:00,
2013-03-11 02:20:00,20.1,15.1,29.93,NNE,23,4.4,6.2,81,0.00,,,0.00,WUHU216HW,2013-03-11 07:20:00,
2013-03-11 02:25:00,20.1,15.1,29.93,NNE,23,4.2,4.4,81,0.00,,,0.00,WUHU216HW,2013-03-11 07:25:00,
2013-03-11 02:30:00,19.9,14.9,29.93,NNE,23,5.3,5.3,81,0.00,,,0.00,WUHU216HW,2013-03-11 07:30:00,
2013-03-11 02:35:00,19.9,14.9,29.93,NNE,23,0.0,5.3,81,0.00,,,0.00,WUHU216HW,2013-03-11 07:35:00,
2013-03-11 02:40:00,19.7,14.8,29.93,NNE,23,3.8,5.5,81,0.00,,,0.00,WUHU216HW,2013-03-11 07:40:00,
2013-03-11 02:45:00,19.7,14.8,29.93,NNE,23,4.2,5.5,81,0.00,,,0.00,WUHU216HW,2013-03-11 07:45:00,
2013-03-11 02:50:00,19.7,14.5,29.92,NNE,23,0.0,4.2,80,0.00,,,0.00,WUHU216HW,2013-03-11 07:50:00,
2013-03-11 02:55:00,19.7,14.5,29.92,NNE,23,0.0,4.6,80,0.00,,,0.00,WUHU216HW,2013-03-11 07:55:00,
2013-03-11 03:00:00,19.4,14.1,29.93,NNE,23,3.3,4.6,80,0.00,,,0.00,WUHU216HW,2013-03-11 08:00:00,
2013-03-11 03:05:00,19.2,14.2,29.93,NNE,23,0.0,3.3,81,0.00,,,0.00,WUHU216HW,2013-03-11 08:05:00,
2013-03-11 03:10:00,19.2,14.2,29.93,NNE,23,0.0,3.3,81,0.00,,,0.00,WUHU216HW,2013-03-11 08:10:00,
2013-03-11 03:15:00,19.2,14.2,29.93,NNE,23,3.3,3.3,81,0.00,,,0.00,WUHU216HW,2013-03-11 08:15:00,
2013-03-11 03:20:00,19.2,14.2,29.92,NNE,23,0.0,3.3,81,0.00,,,0.00,WUHU216HW,2013-03-11 08:20:00,
2013-03-11 03:25:00,19.0,14.0,29.93,NNE,23,0.0,3.3,81,0.00,,,0.00,WUHU216HW,2013-03-11 08:25:00,
2013-03-11 03:30:00,19.2,14.2,29.93,NNE,23,0.0,1.7,81,0.00,,,0.00,WUHU216HW,2013-03-11 08:30:00,
2013-03-11 03:35:00,19.0,14.0,29.92,NNE,23,4.4,4.4,81,0.00,,,0.00,WUHU216HW,2013-03-11 08:35:00,
2013-03-11 03:40:00,19.0,14.0,29.92,NNE,23,0.0,4.4,81,0.00,,,0.00,WUHU216HW,2013-03-11 08:40:00,
2013-03-11 03:45:00,19.0,14.0,29.92,NNE,23,5.5,5.5,81,0.00,,,0.00,WUHU216HW,2013-03-11 08:45:00,
2013-03-11 03:50:00,19.0,14.0,29.92,NNE,23,2.9,5.5,81,0.00,,,0.00,WUHU216HW,2013-03-11 08:50:00,
2013-03-11 03:55:00,19.0,14.0,29.92,NNE,23,0.0,5.5,81,0.00,,,0.00,WUHU216HW,2013-03-11 08:55:00,
2013-03-11 04:00:00,18.6,13.7,29.92,NNE,23,0.0,3.3,81,0.00,,,0.00,WUHU216HW,2013-03-11 09:00:00,
2013-03-11 04:05:00,18.6,13.7,29.92,NNE,23,3.3,3.8,81,0.00,,,0.00,WUHU216HW,2013-03-11 09:05:00,
2013-03-11 04:10:00,18.6,13.4,29.92,NNE,23,4.0,4.0,80,0.00,,,0.00,WUHU216HW,2013-03-11 09:10:00,
2013-03-11 04:15:00,18.5,13.2,29.92,NNE,23,5.1,5.1,80,0.00,,,0.00,WUHU216HW,2013-03-11 09:15:00,
2013-03-11 04:20:00,18.5,13.2,29.91,NNE,23,2.9,5.1,80,0.00,,,0.00,WUHU216HW,2013-03-11 09:20:00,
2013-03-11 04:25:00,18.3,13.1,29.91,NNE,23,3.8,5.5,80,0.00,,,0.00,WUHU216HW,2013-03-11 09:25:00,
2013-03-11 04:30:00,18.3,13.1,29.91,NNE,23,0.0,5.5,80,0.00,,,0.00,WUHU216HW,2013-03-11 09:30:00,
2013-03-11 04:35:00,18.3,13.1,29.90,NNE,23,0.0,2.6,80,0.00,,,0.00,WUHU216HW,2013-03-11 09:35:00,
2013-03-11 04:40:00,18.1,12.9,29.90,NNE,23,2.9,6.7,80,0.00,,,0.00,WUHU216HW,2013-03-11 09:40:00,
2013-03-11 04:45:00,18.1,12.9,29.90,NNE,23,4.2,6.7,80,0.00,,,0.00,WUHU216HW,2013-03-11 09:45:00,
2013-03-11 04:50:00,18.1,12.9,29.90,NNE,23,0.0,4.2,80,0.00,,,0.00,WUHU216HW,2013-03-11 09:50:00,
2013-03-11 04:55:00,18.1,12.9,29.90,NNE,23,0.0,4.2,80,0.00,,,0.00,WUHU216HW,2013-03-11 09:55:00,
2013-03-11 05:00:00,17.9,12.7,29.90,NNE,23,0.0,4.0,80,0.00,,,0.00,WUHU216HW,2013-03-11 10:00:00,
2013-03-11 05:05:00,17.7,12.8,29.90,NNE,23,0.0,4.0,81,0.00,,,0.00,WUHU216HW,2013-03-11 10:05:00,
2013-03-11 05:10:00,17.7,12.8,29.90,NNE,23,0.0,0.0,81,0.00,,,0.00,WUHU216HW,2013-03-11 10:10:00,
2013-03-11 05:15:00,17.7,12.8,29.91,NNE,23,0.0,0.0,81,0.00,,,0.00,WUHU216HW,2013-03-11 10:15:00,
2013-03-11 05:20:00,17.6,12.6,29.90,NNE,23,0.0,0.0,81,0.00,,,0.00,WUHU216HW,2013-03-11 10:20:00,
2013-03-11 05:25:00,17.6,12.6,29.91,NNE,23,0.0,0.0,81,0.00,,,0.00,WUHU216HW,2013-03-11 10:25:00,
2013-03-11 05:30:00,17.7,12.8,29.92,NNE,23,0.0,0.0,82,0.00,,,0.00,WUHU216HW,2013-03-11 10:30:00,
2013-03-11 05:35:00,17.9,13.2,29.92,NNE,23,0.0,0.0,82,0.00,,,0.00,WUHU216HW,2013-03-11 10:35:00,
2013-03-11 05:40:00,17.9,13.2,29.92,NNE,23,0.0,0.0,82,0.00,,,0.00,WUHU216HW,2013-03-11 10:40:00,
2013-03-11 05:45:00,17.9,13.2,29.92,NNE,23,0.0,0.0,82,0.00,,,0.00,WUHU216HW,2013-03-11 10:45:00,
2013-03-11 05:50:00,18.1,13.4,29.91,NNE,23,0.0,0.0,82,0.00,,,0.00,WUHU216HW,2013-03-11 10:50:00,
2013-03-11 05:55:00,18.1,13.4,29.91,NNE,23,0.0,0.0,82,0.00,,,0.00,WUHU216HW,2013-03-11 10:55:00,
2013-03-11 06:00:00,18.1,13.4,29.91,NNE,23,0.0,0.0,82,0.00,,,0.00,WUHU216HW,2013-03-11 11:00:00,
2013-03-11 06:05:00,18.1,13.4,29.91,NNE,23,0.0,0.0,82,0.00,,,0.00,WUHU216HW,2013-03-11 11:05:00,
2013-03-11 06:10:00,18.1,13.4,29.91,NNE,23,0.0,0.0,82,0.00,,,0.00,WUHU216HW,2013-03-11 11:10:00,
2013-03-11 06:15:00,18.1,13.4,29.91,NNE,23,0.0,0.0,82,0.00,,,0.00,WUHU216HW,2013-03-11 11:15:00,
2013-03-11 06:20:00,18.1,13.4,29.90,NNE,23,0.0,0.0,82,0.00,,,0.00,WUHU216HW,2013-03-11 11:20:00,
2013-03-11 06:25:00,17.9,13.2,29.90,NNE,23,3.5,3.5,82,0.00,,,0.00,WUHU216HW,2013-03-11 11:25:00,
2013-03-11 06:30:00,17.9,13.2,29.90,NNE,23,0.0,3.5,82,0.00,,,0.00,WUHU216HW,2013-03-11 11:30:00,
2013-03-11 06:35:00,17.7,13.1,29.90,NNE,23,0.0,3.5,82,0.00,,,0.00,WUHU216HW,2013-03-11 11:35:00,
2013-03-11 06:40:00,17.7,13.1,29.90,NNE,23,0.0,0.0,82,0.00,,,0.00,WUHU216HW,2013-03-11 11:40:00,
2013-03-11 06:45:00,17.7,13.1,29.90,NNE,23,0.0,0.0,82,0.00,,,0.00,WUHU216HW,2013-03-11 11:45:00,
2013-03-11 06:50:00,17.7,13.1,29.90,NNE,23,0.0,0.0,82,0.00,,,0.00,WUHU216HW,2013-03-11 11:50:00,
2013-03-11 06:55:00,17.7,13.1,29.91,NNE,23,0.0,0.0,82,0.00,,,0.00,WUHU216HW,2013-03-11 11:55:00,
2013-03-11 07:00:00,17.7,13.1,29.91,NNE,23,0.0,0.0,82,0.00,,,0.00,WUHU216HW,2013-03-11 12:00:00,
2013-03-11 07:05:00,17.7,13.1,29.91,NNE,23,0.0,0.0,82,0.00,,,0.00,WUHU216HW,2013-03-11 12:05:00,
2013-03-11 07:10:00,17.7,13.1,29.91,NNE,23,0.0,0.0,82,0.00,,,0.00,WUHU216HW,2013-03-11 12:10:00,
2013-03-11 07:15:00,17.7,13.1,29.91,NNE,23,1.3,2.9,82,0.00,,,0.00,WUHU216HW,2013-03-11 12:15:00,
2013-03-11 07:20:00,17.7,13.1,29.91,NNE,23,0.0,2.9,82,0.00,,,0.00,WUHU216HW,2013-03-11 12:20:00,
2013-03-11 07:25:00,17.9,13.2,29.91,NNE,23,0.0,2.6,82,0.00,,,0.00,WUHU216HW,2013-03-11 12:25:00,
2013-03-11 07:30:00,17.9,13.2,29.92,NNE,23,0.0,2.6,82,0.00,,,0.00,WUHU216HW,2013-03-11 12:30:00,
2013-03-11 07:35:00,17.9,13.2,29.91,NNE,23,0.0,2.6,82,0.00,,,0.00,WUHU216HW,2013-03-11 12:35:00,
2013-03-11 07:40:00,18.1,13.4,29.91,NNE,23,0.0,0.0,82,0.00,,,0.00,WUHU216HW,2013-03-11 12:40:00,
2013-03-11 07:45:00,18.1,13.4,29.91,NNE,23,0.0,0.0,82,0.00,,,0.00,WUHU216HW,2013-03-11 12:45:00,
2013-03-11 07:50:00,18.1,13.4,29.91,NNE,23,0.6,0.6,82,0.00,,,0.00,WUHU216HW,2013-03-11 12:50:00,
2013-03-11 07:55:00,18.1,13.4,29.92,NNE,23,0.0,0.6,82,0.00,,,0.00,WUHU216HW,2013-03-11 12:55:00,
2013-03-11 08:00:00,18.1,13.4,29.92,NNE,23,0.0,3.3,82,0.00,,,0.00,WUHU216HW,2013-03-11 13:00:00,
2013-03-11 08:05:00,18.1,13.4,29.92,NNE,23,0.0,3.3,82,0.00,,,0.00,WUHU216HW,2013-03-11 13:05:00,
2013-03-11 08:10:00,18.1,13.4,29.92,NNE,23,0.0,4.4,82,0.00,,,0.00,WUHU216HW,2013-03-11 13:10:00,
2013-03-11 08:15:00,18.3,13.6,29.92,NNE,23,0.0,4.4,83,0.00,,,0.00,WUHU216HW,2013-03-11 13:15:00,
2013-03-11 08:20:00,18.3,13.6,29.92,NNE,23,0.0,0.0,83,0.00,,,0.00,WUHU216HW,2013-03-11 13:20:00,
2013-03-11 08:25:00,18.6,14.2,29.93,NNE,23,3.1,3.1,83,0.00,,,0.00,WUHU216HW,2013-03-11 13:25:00,
2013-03-11 08:30:00,18.5,14.0,29.93,NNE,23,0.0,3.1,83,0.00,,,0.00,WUHU216HW,2013-03-11 13:30:00,
2013-03-11 08:35:00,18.6,14.2,29.92,NNE,23,2.2,3.1,83,0.00,,,0.00,WUHU216HW,2013-03-11 13:35:00,
2013-03-11 08:40:00,18.6,14.2,29.92,NNE,23,0.0,2.2,82,0.00,,,0.00,WUHU216HW,2013-03-11 13:40:00,
2013-03-11 08:45:00,18.6,14.2,29.92,NNE,23,0.0,2.2,82,0.00,,,0.00,WUHU216HW,2013-03-11 13:45:00,
2013-03-11 08:50:00,19.0,14.0,29.92,NNE,23,0.0,0.0,81,0.00,,,0.00,WUHU216HW,2013-03-11 13:50:00,
2013-03-11 08:55:00,19.2,14.2,29.92,NNE,23,4.0,4.0,81,0.00,,,0.00,WUHU216HW,2013-03-11 13:55:00,
2013-03-11 09:00:00,19.2,14.2,29.93,NNE,23,0.0,4.0,81,0.00,,,0.00,WUHU216HW,2013-03-11 14:00:00,
2013-03-11 09:05:00,19.5,14.6,29.92,NNE,23,0.0,4.0,81,0.00,,,0.00,WUHU216HW,2013-03-11 14:05:00,
2013-03-11 09:10:00,19.7,14.5,29.92,NNE,23,0.0,0.0,80,0.00,,,0.00,WUHU216HW,2013-03-11 14:10:00,
2013-03-11 09:15:00,19.9,14.4,29.92,NNE,23,0.0,0.0,79,0.00,,,0.00,WUHU216HW,2013-03-11 14:15:00,
2013-03-11 09:20:00,20.1,14.5,29.92,NNE,23,0.0,0.0,79,0.00,,,0.00,WUHU216HW,2013-03-11 14:20:00,
2013-03-11 09:25:00,21.0,15.1,29.92,NNE,23,0.0,0.0,78,0.00,,,0.00,WUHU216HW,2013-03-11 14:25:00,
2013-03-11 09:30:00,21.3,15.5,29.92,NNE,23,0.0,0.0,77,0.00,,,0.00,WUHU216HW,2013-03-11 14:30:00,
2013-03-11 09:35:00,21.7,15.6,29.93,NNE,23,0.0,0.0,77,0.00,,,0.00,WUHU216HW,2013-03-11 14:35:00,
2013-03-11 09:40:00,22.6,16.1,29.93,NNE,23,0.0,0.0,76,0.00,,,0.00,WUHU216HW,2013-03-11 14:40:00,
2013-03-11 09:45:00,23.3,16.2,29.92,NNE,23,0.0,0.0,74,0.00,,,0.00,WUHU216HW,2013-03-11 14:45:00,
2013-03-11 09:50:00,23.7,16.6,29.93,NNE,23,0.0,0.0,74,0.00,,,0.00,WUHU216HW,2013-03-11 14:50:00,
2013-03-11 09:55:00,24.8,16.9,29.93,NNE,23,0.0,0.0,72,0.00,,,0.00,WUHU216HW,2013-03-11 14:55:00,
2013-03-11 10:00:00,25.7,17.8,29.93,NNE,23,0.0,0.0,72,0.00,,,0.00,WUHU216HW,2013-03-11 15:00:00,
2013-03-11 10:05:00,26.4,17.9,29.93,NNE,23,0.0,0.0,70,0.00,,,0.00,WUHU216HW,2013-03-11 15:05:00,
2013-03-11 10:10:00,27.3,18.1,29.93,NNE,23,0.0,0.6,68,0.00,,,0.00,WUHU216HW,2013-03-11 15:10:00,
2013-03-11 10:15:00,27.8,18.6,29.93,NNE,23,0.0,0.6,68,0.00,,,0.00,WUHU216HW,2013-03-11 15:15:00,
2013-03-11 10:20:00,28.2,18.3,29.93,NNE,23,0.0,7.1,66,0.00,,,0.00,WUHU216HW,2013-03-11 15:20:00,
2013-03-11 10:25:00,28.4,18.5,29.93,NNE,23,0.0,7.1,66,0.00,,,0.00,WUHU216HW,2013-03-11 15:25:00,
2013-03-11 10:30:00,28.0,18.1,29.93,NNE,23,2.9,2.9,66,0.00,,,0.00,WUHU216HW,2013-03-11 15:30:00,
2013-03-11 10:35:00,27.3,17.4,29.93,NNE,23,0.0,2.9,66,0.00,,,0.00,WUHU216HW,2013-03-11 15:35:00,
2013-03-11 10:40:00,27.3,17.4,29.93,NNE,23,0.0,2.9,68,0.00,,,0.00,WUHU216HW,2013-03-11 15:40:00,
2013-03-11 10:45:00,27.3,17.4,29.93,NNE,23,0.0,0.0,67,0.00,,,0.00,WUHU216HW,2013-03-11 15:45:00,
2013-03-11 10:50:00,28.0,18.5,29.93,NNE,23,0.0,0.0,67,0.00,,,0.00,WUHU216HW,2013-03-11 15:50:00,
2013-03-11 10:55:00,28.7,19.1,29.93,NNE,23,0.0,0.0,67,0.00,,,0.00,WUHU216HW,2013-03-11 15:55:00,
2013-03-11 11:00:00,28.9,18.9,29.93,NNE,23,0.0,0.0,66,0.00,,,0.00,WUHU216HW,2013-03-11 16:00:00,
2013-03-11 11:05:00,29.3,19.3,29.93,NNE,23,0.0,0.0,65,0.00,,,0.00,WUHU216HW,2013-03-11 16:05:00,
2013-03-11 11:10:00,29.1,18.7,29.92,NNE,23,0.0,0.0,65,0.00,,,0.00,WUHU216HW,2013-03-11 16:10:00,
2013-03-11 11:15:00,28.9,18.6,29.92,NNE,23,0.0,0.0,65,0.00,,,0.00,WUHU216HW,2013-03-11 16:15:00,
2013-03-11 11:20:00,28.5,18.3,29.92,NNE,23,0.0,0.0,65,0.00,,,0.00,WUHU216HW,2013-03-11 16:20:00,
2013-03-11 11:25:00,28.5,18.3,29.92,NNE,23,0.0,0.0,65,0.00,,,0.00,WUHU216HW,2013-03-11 16:25:00,
2013-03-11 11:30:00,28.7,18.8,29.92,NNE,23,0.0,0.0,66,0.00,,,0.00,WUHU216HW,2013-03-11 16:30:00,
2013-03-11 11:35:00,28.9,18.9,29.92,NNE,23,0.0,0.0,65,0.00,,,0.00,WUHU216HW,2013-03-11 16:35:00,
2013-03-11 11:40:00,28.9,18.9,29.92,NNE,23,0.0,0.0,65,0.00,,,0.00,WUHU216HW,2013-03-11 16:40:00,
2013-03-11 11:45:00,29.4,19.1,29.92,NNE,23,3.3,3.3,65,0.00,,,0.00,WUHU216HW,2013-03-11 16:45:00,
2013-03-11 11:50:00,29.8,19.0,29.93,NNE,23,0.8,3.3,64,0.00,,,0.00,WUHU216HW,2013-03-11 16:50:00,
2013-03-11 11:56:00,30.2,19.0,29.93,NNE,23,2.4,5.8,63,0.00,,,0.00,WUHU216HW,2013-03-11 16:56:00,
2013-03-11 12:01:00,30.0,18.8,29.93,NNE,23,0.0,5.8,64,0.00,,,0.00,WUHU216HW,2013-03-11 17:01:00,
2013-03-11 12:06:00,30.0,18.8,29.93,NNE,23,0.0,2.4,64,0.00,,,0.00,WUHU216HW,2013-03-11 17:06:00,
2013-03-11 12:11:00,29.4,18.7,29.93,NNE,23,2.6,2.6,64,0.00,,,0.00,WUHU216HW,2013-03-11 17:11:00,
2013-03-11 12:16:00,29.4,19.4,29.93,NNE,23,0.0,4.4,66,0.00,,,0.00,WUHU216HW,2013-03-11 17:16:00,
2013-03-11 12:21:00,29.6,19.6,29.93,NNE,23,0.0,4.4,66,0.00,,,0.00,WUHU216HW,2013-03-11 17:21:00,
2013-03-11 12:26:00,30.0,19.9,29.93,NNE,23,0.0,0.0,66,0.00,,,0.00,WUHU216HW,2013-03-11 17:26:00,
2013-03-11 12:31:00,31.4,20.6,29.93,NNE,23,1.5,2.9,64,0.00,,,0.00,WUHU216HW,2013-03-11 17:31:00,
2013-03-11 12:36:00,31.6,20.8,29.92,NNE,23,1.3,3.8,64,0.00,,,0.00,WUHU216HW,2013-03-11 17:36:00,
2013-03-11 12:41:00,31.2,20.4,29.91,NNE,23,3.5,3.8,64,0.00,,,0.00,WUHU216HW,2013-03-11 17:41:00,
2013-03-11 12:46:00,31.2,20.4,29.92,NNE,23,0.0,3.5,62,0.00,,,0.00,WUHU216HW,2013-03-11 17:46:00,
2013-03-11 12:51:00,31.1,19.9,29.92,NNE,23,0.0,3.5,63,0.00,,,0.00,WUHU216HW,2013-03-11 17:51:00,
2013-03-11 12:56:00,30.7,19.5,29.92,NNE,23,0.0,0.0,63,0.00,,,0.00,WUHU216HW,2013-03-11 17:56:00,
2013-03-11 13:01:00,30.7,19.5,29.91,NNE,23,0.0,4.2,64,0.00,,,0.00,WUHU216HW,2013-03-11 18:01:00,
2013-03-11 13:06:00,31.2,20.8,29.91,NNE,23,0.8,4.2,65,0.00,,,0.00,WUHU216HW,2013-03-11 18:06:00,
2013-03-11 13:11:00,33.4,22.1,29.91,NNE,23,5.3,5.3,63,0.00,,,0.00,WUHU216HW,2013-03-11 18:11:00,
2013-03-11 13:16:00,34.8,22.8,29.91,NNE,23,1.1,5.3,61,0.00,,,0.00,WUHU216HW,2013-03-11 18:16:00,
2013-03-11 13:21:00,35.4,22.1,29.91,NNE,23,1.3,5.3,58,0.00,,,0.00,WUHU216HW,2013-03-11 18:21:00,
2013-03-11 13:27:00,35.7,22.4,29.90,NNE,23,1.7,1.7,58,0.00,,,0.00,WUHU216HW,2013-03-11 18:27:00,
2013-03-11 13:32:00,36.3,22.5,29.90,NNE,23,0.0,2.9,56,0.00,,,0.00,WUHU216HW,2013-03-11 18:32:00,
2013-03-11 13:37:00,36.5,22.6,29.90,NNE,23,0.0,2.9,56,0.00,,,0.00,WUHU216HW,2013-03-11 18:37:00,
2013-03-11 13:42:00,36.6,22.8,29.90,NNE,23,0.0,2.6,56,0.00,,,0.00,WUHU216HW,2013-03-11 18:42:00,
2013-03-11 13:47:00,37.7,22.5,29.90,NNE,23,0.0,0.0,54,0.00,,,0.00,WUHU216HW,2013-03-11 18:47:00,
2013-03-11 13:52:00,38.1,22.8,29.89,NNE,23,0.0,0.0,54,0.00,,,0.00,WUHU216HW,2013-03-11 18:52:00,
2013-03-11 13:57:00,38.8,23.0,29.89,NNE,23,0.0,0.0,53,0.02,,,0.02,WUHU216HW,2013-03-11 18:57:00,
2013-03-11 14:02:00,38.8,22.6,29.89,NNE,23,0.0,1.5,52,0.02,,,0.02,WUHU216HW,2013-03-11 19:02:00,
2013-03-11 14:07:00,39.2,22.9,29.89,NNE,23,0.0,1.5,52,0.02,,,0.02,WUHU216HW,2013-03-11 19:07:00,
2013-03-11 14:12:00,39.7,22.5,29.88,NNE,23,0.0,2.2,50,0.02,,,0.02,WUHU216HW,2013-03-11 19:12:00,
2013-03-11 14:17:00,39.3,22.2,29.89,NNE,23,0.0,2.6,50,0.02,,,0.02,WUHU216HW,2013-03-11 19:17:00,
2013-03-11 14:22:00,39.7,22.5,29.88,NNE,23,0.0,2.6,49,0.02,,,0.02,WUHU216HW,2013-03-11 19:22:00,
2013-03-11 14:27:00,39.7,22.5,29.88,NNE,23,0.0,0.0,49,0.02,,,0.02,WUHU216HW,2013-03-11 19:27:00,
2013-03-11 14:32:00,38.8,21.7,29.88,NNE,23,2.6,2.6,50,0.02,,,0.02,WUHU216HW,2013-03-11 19:32:00,
2013-03-11 14:37:00,38.1,21.5,29.88,NNE,23,2.4,2.6,51,0.04,,,0.04,WUHU216HW,2013-03-11 19:37:00,
2013-03-11 14:42:00,37.7,21.2,29.88,NNE,23,0.0,4.0,51,0.04,,,0.04,WUHU216HW,2013-03-11 19:42:00,
2013-03-11 14:47:00,37.9,21.4,29.88,NNE,23,5.8,5.8,51,0.06,,,0.06,WUHU216HW,2013-03-11 19:47:00,
2013-03-11 14:52:00,37.5,21.5,29.88,NNE,23,1.7,5.8,52,0.06,,,0.06,WUHU216HW,2013-03-11 19:52:00,
2013-03-11 14:57:00,37.2,21.6,29.88,NNE,23,5.1,7.8,53,0.06,,,0.08,WUHU216HW,2013-03-11 19:57:00,
2013-03-11 15:02:00,37.2,21.1,29.87,NNE,23,3.8,7.8,52,0.06,,,0.08,WUHU216HW,2013-03-11 20:02:00,
2013-03-11 15:07:00,36.6,21.1,29.88,NNE,23,0.0,5.1,53,0.06,,,0.08,WUHU216HW,2013-03-11 20:07:00,
2013-03-11 15:12:00,37.0,21.4,29.88,NNE,23,0.0,5.1,52,0.06,,,0.08,WUHU216HW,2013-03-11 20:12:00,
2013-03-11 15:17:00,37.0,21.4,29.88,NNE,23,0.0,2.4,52,0.06,,,0.08,WUHU216HW,2013-03-11 20:17:00,
2013-03-11 15:22:00,37.2,20.7,29.88,NNE,23,0.4,6.0,51,0.06,,,0.08,WUHU216HW,2013-03-11 20:22:00,
2013-03-11 15:27:00,36.6,20.2,29.88,NNE,23,0.0,6.0,53,0.06,,,0.08,WUHU216HW,2013-03-11 20:27:00,
2013-03-11 15:32:00,37.2,21.1,29.88,NNE,23,0.0,0.4,52,0.06,,,0.08,WUHU216HW,2013-03-11 20:32:00,
2013-03-11 15:37:00,37.7,21.6,29.88,NNE,23,0.0,0.0,53,0.06,,,0.08,WUHU216HW,2013-03-11 20:37:00,
2013-03-11 15:42:00,37.9,21.4,29.88,NNE,23,0.0,0.0,51,0.06,,,0.08,WUHU216HW,2013-03-11 20:42:00,
2013-03-11 15:47:00,37.5,21.5,29.88,NNE,23,2.9,2.9,52,0.06,,,0.08,WUHU216HW,2013-03-11 20:47:00,
2013-03-11 15:52:00,36.5,20.9,29.88,NNE,23,5.5,5.5,53,0.06,,,0.08,WUHU216HW,2013-03-11 20:52:00,
2013-03-11 15:57:00,36.1,20.6,29.87,NNE,23,0.0,5.5,53,0.00,,,0.08,WUHU216HW,2013-03-11 20:57:00,
2013-03-11 16:02:00,36.1,21.0,29.87,NNE,23,0.0,5.5,54,0.00,,,0.08,WUHU216HW,2013-03-11 21:02:00,
2013-03-11 16:07:00,36.6,21.1,29.87,NNE,23,0.0,1.1,53,0.00,,,0.08,WUHU216HW,2013-03-11 21:07:00,
2013-03-11 16:13:00,37.2,21.6,29.87,NNE,23,0.0,1.1,53,0.00,,,0.08,WUHU216HW,2013-03-11 21:13:00,
2013-03-11 16:18:00,37.0,21.4,29.88,NNE,23,2.4,2.4,53,0.00,,,0.08,WUHU216HW,2013-03-11 21:18:00,
2013-03-11 16:23:00,37.0,21.4,29.88,WNW,293,0.0,2.4,55,0.00,,,0.08,WUHU216HW,2013-03-11 21:23:00,
2013-03-11 16:28:00,37.0,21.4,29.88,West,270,0.0,2.4,53,0.00,,,0.08,WUHU216HW,2013-03-11 21:28:00,
2013-03-11 16:33:00,36.6,21.5,29.88,West,270,0.0,2.2,54,0.00,,,0.08,WUHU216HW,2013-03-11 21:33:00,
2013-03-11 16:38:00,36.5,21.4,29.88,West,270,3.1,5.3,54,0.00,,,0.08,WUHU216HW,2013-03-11 21:38:00,
2013-03-11 16:43:00,35.6,21.4,29.88,WSW,248,2.2,5.3,56,0.00,,,0.08,WUHU216HW,2013-03-11 21:43:00,
2013-03-11 16:48:00,35.4,21.7,29.88,WSW,248,2.0,6.4,57,0.00,,,0.08,WUHU216HW,2013-03-11 21:48:00,
2013-03-11 16:53:00,35.6,21.8,29.88,WSW,248,2.4,6.4,57,0.00,,,0.08,WUHU216HW,2013-03-11 21:53:00,
2013-03-11 16:58:00,35.6,21.8,29.88,WSW,248,0.0,3.1,57,0.00,,,0.08,WUHU216HW,2013-03-11 21:58:00,
2013-03-11 17:03:00,35.9,22.2,29.88,WSW,248,3.1,3.1,57,0.00,,,0.08,WUHU216HW,2013-03-11 22:03:00,
2013-03-11 17:08:00,36.1,22.3,29.88,WSW,248,0.0,4.6,57,0.00,,,0.08,WUHU216HW,2013-03-11 22:08:00,
2013-03-11 17:13:00,36.1,22.3,29.88,West,270,0.0,4.6,57,0.00,,,0.08,WUHU216HW,2013-03-11 22:13:00,
2013-03-11 17:18:00,36.1,21.5,29.88,WSW,248,2.0,4.2,55,0.00,,,0.08,WUHU216HW,2013-03-11 22:18:00,
2013-03-11 17:23:00,36.5,22.6,29.87,WSW,248,0.0,4.2,57,0.00,,,0.08,WUHU216HW,2013-03-11 22:23:00,
2013-03-11 17:28:00,36.6,21.9,29.86,WSW,248,0.0,3.1,56,0.00,,,0.08,WUHU216HW,2013-03-11 22:28:00,
2013-03-11 17:33:00,36.6,21.9,29.87,WSW,248,0.0,0.0,55,0.00,,,0.08,WUHU216HW,2013-03-11 22:33:00,
2013-03-11 17:38:00,36.3,22.5,29.87,WSW,248,1.3,2.9,57,0.00,,,0.08,WUHU216HW,2013-03-11 22:38:00,
2013-03-11 17:43:00,35.9,22.2,29.87,WSW,248,0.0,2.9,57,0.00,,,0.08,WUHU216HW,2013-03-11 22:43:00,
2013-03-11 17:48:00,35.7,21.6,29.87,West,270,0.0,2.2,58,0.00,,,0.08,WUHU216HW,2013-03-11 22:48:00,
2013-03-11 17:53:00,35.6,22.3,29.88,West,270,0.0,2.4,58,0.00,,,0.08,WUHU216HW,2013-03-11 22:53:00,
2013-03-11 17:58:00,35.4,22.1,29.87,West,270,0.0,2.4,58,0.00,,,0.08,WUHU216HW,2013-03-11 22:58:00,
2013-03-11 18:03:00,35.4,22.1,29.87,West,270,0.0,0.0,57,0.00,,,0.08,WUHU216HW,2013-03-11 23:03:00,
2013-03-11 18:08:00,35.4,22.1,29.87,West,270,0.0,0.0,58,0.00,,,0.08,WUHU216HW,2013-03-11 23:08:00,
2013-03-11 18:13:00,35.2,21.5,29.87,West,270,0.0,0.0,56,0.00,,,0.08,WUHU216HW,2013-03-11 23:13:00,
2013-03-11 18:18:00,34.5,20.8,29.87,West,270,0.0,0.0,57,0.00,,,0.08,WUHU216HW,2013-03-11 23:18:00,
2013-03-11 18:23:00,34.5,20.8,29.88,West,270,0.0,0.0,60,0.00,,,0.08,WUHU216HW,2013-03-11 23:23:00,
2013-03-11 18:28:00,34.5,20.8,29.88,West,270,0.0,0.0,59,0.00,,,0.08,WUHU216HW,2013-03-11 23:28:00,
2013-03-11 18:33:00,34.1,21.3,29.88,West,270,0.0,0.0,59,0.00,,,0.08,WUHU216HW,2013-03-11 23:33:00,
2013-03-11 18:38:00,33.9,21.1,29.89,West,270,0.0,0.0,60,0.00,,,0.08,WUHU216HW,2013-03-11 23:38:00,
2013-03-11 18:43:00,33.6,21.5,29.89,West,270,0.0,0.0,61,0.00,,,0.08,WUHU216HW,2013-03-11 23:43:00,
2013-03-11 18:48:00,33.8,22.1,29.89,West,270,0.0,0.0,62,0.00,,,0.08,WUHU216HW,2013-03-11 23:48:00,
2013-03-11 18:53:00,33.9,22.2,29.89,West,270,0.0,0.0,62,0.00,,,0.08,WUHU216HW,2013-03-11 23:53:00,
2013-03-11 18:58:00,33.9,22.2,29.90,West,270,0.0,0.0,62,0.00,,,0.08,WUHU216HW,2013-03-11 23:58:00,
2013-03-11 19:03:00,33.6,21.9,29.90,West,270,0.0,0.0,62,0.00,,,0.08,WUHU216HW,2013-03-12 00:03:00,
2013-03-11 19:08:00,33.6,21.9,29.90,West,270,0.0,0.0,63,0.00,,,0.08,WUHU216HW,2013-03-12 00:08:00,
2013-03-11 19:13:00,33.0,21.8,29.90,West,270,0.0,0.0,63,0.00,,,0.08,WUHU216HW,2013-03-12 00:13:00,
2013-03-11 19:18:00,33.0,21.8,29.90,West,270,0.0,0.0,63,0.00,,,0.08,WUHU216HW,2013-03-12 00:18:00,
2013-03-11 19:23:00,32.7,21.8,29.90,West,270,0.0,0.0,64,0.00,,,0.08,WUHU216HW,2013-03-12 00:23:00,
2013-03-11 19:28:00,32.1,21.3,29.91,West,270,0.0,0.0,64,0.00,,,0.08,WUHU216HW,2013-03-12 00:28:00,
2013-03-11 19:33:00,32.0,21.5,29.90,West,270,0.0,0.0,65,0.00,,,0.08,WUHU216HW,2013-03-12 00:33:00,
2013-03-11 19:38:00,31.6,21.2,29.91,West,270,0.0,0.0,65,0.00,,,0.08,WUHU216HW,2013-03-12 00:38:00,
2013-03-11 19:43:00,31.4,21.0,29.90,West,270,0.0,0.0,65,0.00,,,0.08,WUHU216HW,2013-03-12 00:43:00,
2013-03-11 19:48:00,31.2,20.8,29.91,West,270,0.0,0.0,65,0.00,,,0.08,WUHU216HW,2013-03-12 00:48:00,
2013-03-11 19:53:00,31.1,20.6,29.91,West,270,0.0,0.0,65,0.00,,,0.08,WUHU216HW,2013-03-12 00:53:00,
2013-03-11 19:58:00,30.7,20.3,29.92,West,270,0.0,0.0,65,0.00,,,0.08,WUHU216HW,2013-03-12 00:58:00,
2013-03-11 20:03:00,30.3,20.3,29.91,West,270,0.0,0.0,66,0.00,,,0.08,WUHU216HW,2013-03-12 01:03:00,
2013-03-11 20:08:00,30.0,19.9,29.91,West,270,0.0,0.0,66,0.00,,,0.08,WUHU216HW,2013-03-12 01:08:00,
2013-03-11 20:13:00,29.1,19.5,29.91,West,270,0.0,0.0,67,0.00,,,0.08,WUHU216HW,2013-03-12 01:13:00,
2013-03-11 20:18:00,28.7,19.5,29.91,West,270,0.0,0.0,68,0.00,,,0.08,WUHU216HW,2013-03-12 01:18:00,
2013-03-11 20:23:00,28.2,19.0,29.91,West,270,0.0,0.0,68,0.00,,,0.08,WUHU216HW,2013-03-12 01:23:00,
2013-03-11 20:28:00,28.0,18.8,29.92,West,270,0.0,0.0,69,0.00,,,0.08,WUHU216HW,2013-03-12 01:28:00,
2013-03-11 20:33:00,27.8,19.0,29.92,West,270,0.0,0.0,69,0.00,,,0.08,WUHU216HW,2013-03-12 01:33:00,
2013-03-11 20:38:00,27.8,19.0,29.92,West,270,0.0,0.0,69,0.00,,,0.08,WUHU216HW,2013-03-12 01:38:00,
2013-03-11 20:43:00,27.8,19.4,29.93,West,270,0.0,0.0,70,0.00,,,0.08,WUHU216HW,2013-03-12 01:43:00,
2013-03-11 20:48:00,27.5,19.0,29.93,West,270,0.0,0.0,70,0.00,,,0.08,WUHU216HW,2013-03-12 01:48:00,
2013-03-11 20:53:00,27.3,18.8,29.93,West,270,0.0,0.0,70,0.00,,,0.08,WUHU216HW,2013-03-12 01:53:00,
2013-03-11 20:58:00,26.9,18.8,29.93,West,270,0.0,0.0,71,0.00,,,0.08,WUHU216HW,2013-03-12 01:58:00,
2013-03-11 21:03:00,26.7,18.9,29.93,West,270,0.0,0.0,72,0.00,,,0.08,WUHU216HW,2013-03-12 02:03:00,
2013-03-11 21:08:00,26.4,18.5,29.93,West,270,0.0,0.0,72,0.00,,,0.08,WUHU216HW,2013-03-12 02:08:00,
2013-03-11 21:13:00,26.2,18.4,29.94,West,270,0.0,0.0,72,0.00,,,0.08,WUHU216HW,2013-03-12 02:13:00,
2013-03-11 21:18:00,26.2,18.4,29.93,West,270,0.0,0.0,73,0.00,,,0.08,WUHU216HW,2013-03-12 02:18:00,
2013-03-11 21:23:00,26.2,18.4,29.94,West,270,0.0,0.0,73,0.00,,,0.08,WUHU216HW,2013-03-12 02:23:00,
2013-03-11 21:28:00,25.3,17.8,29.93,West,270,0.0,0.0,73,0.00,,,0.08,WUHU216HW,2013-03-12 02:28:00,
2013-03-11 21:33:00,24.9,17.4,29.94,West,270,0.0,0.0,73,0.00,,,0.08,WUHU216HW,2013-03-12 02:33:00,
2013-03-11 21:38:00,24.8,17.6,29.94,West,270,0.0,0.0,74,0.00,,,0.08,WUHU216HW,2013-03-12 02:38:00,
2013-03-11 21:43:00,24.6,17.4,29.94,West,270,0.0,0.0,74,0.00,,,0.08,WUHU216HW,2013-03-12 02:43:00,
2013-03-11 21:48:00,24.4,17.2,29.94,West,270,0.0,0.0,75,0.00,,,0.08,WUHU216HW,2013-03-12 02:48:00,
2013-03-11 21:53:00,24.0,17.2,29.95,West,270,0.0,0.0,75,0.00,,,0.08,WUHU216HW,2013-03-12 02:53:00,
2013-03-11 21:58:00,23.9,17.1,29.95,West,270,0.0,0.0,75,0.00,,,0.08,WUHU216HW,2013-03-12 02:58:00,
2013-03-11 22:03:00,23.7,16.9,29.95,West,270,0.0,0.0,75,0.00,,,0.08,WUHU216HW,2013-03-12 03:03:00,
2013-03-11 22:08:00,23.5,16.7,29.96,West,270,0.0,0.0,75,0.00,,,0.08,WUHU216HW,2013-03-12 03:08:00,
2013-03-11 22:13:00,23.3,16.5,29.96,West,270,0.0,0.0,76,0.00,,,0.08,WUHU216HW,2013-03-12 03:13:00,
2013-03-11 22:18:00,23.1,16.7,29.96,West,270,0.0,0.0,76,0.00,,,0.08,WUHU216HW,2013-03-12 03:18:00,
2013-03-11 22:23:00,23.1,16.7,29.96,West,270,0.0,0.0,76,0.00,,,0.08,WUHU216HW,2013-03-12 03:23:00,
2013-03-11 22:28:00,22.8,16.3,29.96,West,270,0.0,0.0,76,0.00,,,0.08,WUHU216HW,2013-03-12 03:28:00,
2013-03-11 22:33:00,22.8,16.3,29.96,West,270,0.0,0.0,76,0.00,,,0.08,WUHU216HW,2013-03-12 03:33:00,
2013-03-11 22:38:00,22.6,16.1,29.97,West,270,0.0,0.0,76,0.00,,,0.08,WUHU216HW,2013-03-12 03:38:00,
2013-03-11 22:43:00,22.6,16.1,29.97,West,270,0.0,0.0,77,0.00,,,0.08,WUHU216HW,2013-03-12 03:43:00,
2013-03-11 22:48:00,22.1,15.9,29.97,West,270,0.0,0.0,77,0.00,,,0.08,WUHU216HW,2013-03-12 03:48:00,
2013-03-11 22:53:00,21.7,15.6,29.98,West,270,0.0,0.0,77,0.00,,,0.08,WUHU216HW,2013-03-12 03:53:00,
2013-03-11 22:58:00,21.7,15.6,29.98,West,270,0.0,0.0,77,0.00,,,0.08,WUHU216HW,2013-03-12 03:58:00,
2013-03-11 23:03:00,21.7,15.6,29.98,West,270,0.0,0.0,77,0.00,,,0.08,WUHU216HW,2013-03-12 04:03:00,
2013-03-11 23:08:00,21.3,15.2,29.98,West,270,0.0,0.0,77,0.00,,,0.08,WUHU216HW,2013-03-12 04:08:00,
2013-03-11 23:13:00,21.0,14.8,29.98,West,270,0.0,0.0,77,0.00,,,0.08,WUHU216HW,2013-03-12 04:13:00,
2013-03-11 23:18:00,20.8,14.7,29.99,West,270,0.0,0.0,77,0.00,,,0.08,WUHU216HW,2013-03-12 04:18:00,
2013-03-11 23:23:00,20.4,14.3,29.99,West,270,0.0,0.0,77,0.00,,,0.08,WUHU216HW,2013-03-12 04:23:00,
2013-03-11 23:28:00,20.6,14.5,29.99,West,270,0.0,0.0,78,0.00,,,0.08,WUHU216HW,2013-03-12 04:28:00,
2013-03-11 23:33:00,20.6,14.5,29.99,West,270,0.0,0.0,78,0.00,,,0.08,WUHU216HW,2013-03-12 04:33:00,
2013-03-11 23:38:00,20.6,14.5,29.99,West,270,0.0,0.0,78,0.00,,,0.08,WUHU216HW,2013-03-12 04:38:00,
2013-03-11 23:43:00,20.6,14.5,29.99,West,270,0.0,0.0,78,0.00,,,0.08,WUHU216HW,2013-03-12 04:43:00,
2013-03-11 23:48:00,20.4,14.6,30.00,West,270,0.0,0.0,78,0.00,,,0.08,WUHU216HW,2013-03-12 04:48:00,
2013-03-11 23:53:00,20.3,14.4,30.00,West,270,0.0,0.0,78,0.00,,,0.08,WUHU216HW,2013-03-12 04:53:00,
2013-03-11 23:58:00,20.1,14.5,30.00,West,270,0.0,0.0,79,0.00,,,0.08,WUHU216HW,2013-03-12 04:58:00,